Time;durP1;ratioP1;P1;durP2;ratioP2;P2;SDS_P1;SDS_P2;PMS_P1;PMS_P2;Temp;Humidity;BMP_temperature;BMP_pressure;BME280_temperature;BME280_humidity;BME280_pressure;Samples;Min_cycle;Max_cycle;Signal;HPM_P1;HPM_P2
2022/04/05 00:01:08;;;;;;;6.32;4.57;;;;;;;;;;5016047;28;20041;-80
2022/04/05 00:03:34;;;;;;;9.73;4.72;;;;;;;;;;5031491;28;20068;-80
2022/04/05 00:05:59;;;;;;;6.80;4.53;;;;;;;;;;5031344;28;20034;-80
2022/04/05 00:08:24;;;;;;;6.88;4.70;;;;;;;;;;5015853;28;20030;-81
2022/04/05 00:10:50;;;;;;;7.00;4.75;;;;;;;;;;5015824;28;20041;-81
2022/04/05 00:13:15;;;;;;;8.32;5.10;;;;;;;;;;5015735;28;20116;-80
2022/04/05 00:15:40;;;;;;;6.32;4.38;;;;;;;;;;5031156;28;20030;-80
2022/04/05 00:18:05;;;;;;;9.02;5.00;;;;;;;;;;5015849;28;20494;-80
2022/04/05 00:20:31;;;;;;;11.10;5.28;;;;;;;;;;5032247;28;20029;-80
2022/04/05 00:22:56;;;;;;;7.63;4.70;;;;;;;;;;5016544;28;20038;-80
2022/04/05 00:25:21;;;;;;;8.45;5.45;;;;;;;;;;5015977;28;20057;-80
2022/04/05 00:27:47;;;;;;;8.27;5.40;;;;;;;;;;5016937;28;20486;-80
2022/04/05 00:30:13;;;;;;;8.65;5.40;;;;;;;;;;5031885;28;20037;-81
2022/04/05 00:32:38;;;;;;;8.77;5.10;;;;;;;;;;5016613;28;20106;-81
2022/04/05 00:35:03;;;;;;;9.20;5.28;;;;;;;;;;5031256;28;20080;-81
2022/04/05 00:37:28;;;;;;;8.18;4.72;;;;;;;;;;5016409;28;20030;-81
2022/04/05 00:39:54;;;;;;;7.88;5.10;;;;;;;;;;5031934;28;20188;-80
2022/04/05 00:42:19;;;;;;;7.55;4.63;;;;;;;;;;5015018;28;20042;-80
2022/04/05 00:44:44;;;;;;;7.75;4.60;;;;;;;;;;5016208;28;20048;-80
2022/04/05 00:47:10;;;;;;;7.22;4.60;;;;;;;;;;5031020;28;20041;-80
2022/04/05 00:49:35;;;;;;;9.43;4.90;;;;;;;;;;5031956;28;20054;-80
2022/04/05 00:52:00;;;;;;;7.18;4.90;;;;;;;;;;5030957;28;20453;-80
2022/04/05 00:54:26;;;;;;;8.25;4.88;;;;;;;;;;5015825;28;20042;-79
2022/04/05 00:56:52;;;;;;;7.82;4.88;;;;;;;;;;5031270;28;20514;-79
2022/04/05 00:59:17;;;;;;;7.82;4.97;;;;;;;;;;5016796;28;20707;-80
2022/04/05 01:01:42;;;;;;;7.25;4.97;;;;;;;;;;5032084;28;20045;-80
2022/04/05 01:04:07;;;;;;;8.55;5.05;;;;;;;;;;5015705;28;20034;-79
2022/04/05 01:06:33;;;;;;;7.90;4.60;;;;;;;;;;5016098;28;20034;-80
2022/04/05 01:08:58;;;;;;;8.40;4.40;;;;;;;;;;5015986;28;20117;-79
2022/04/05 01:11:23;;;;;;;6.35;4.35;;;;;;;;;;5031550;28;20065;-81
2022/04/05 01:13:48;;;;;;;6.65;4.55;;;;;;;;;;5015198;28;20112;-79
2022/04/05 01:16:14;;;;;;;9.52;5.25;;;;;;;;;;5015840;28;20548;-79
2022/04/05 01:18:39;;;;;;;7.82;5.00;;;;;;;;;;5016171;28;20037;-79
2022/04/05 01:21:04;;;;;;;7.65;4.85;;;;;;;;;;5030815;28;20037;-79
2022/04/05 01:23:29;;;;;;;8.30;5.00;;;;;;;;;;5015574;28;20414;-79
2022/04/05 01:25:56;;;;;;;7.03;4.80;;;;;;;;;;5030453;28;20038;-79
2022/04/05 01:28:21;;;;;;;9.25;5.55;;;;;;;;;;5030407;28;20034;-80
2022/04/05 01:30:47;;;;;;;7.65;5.00;;;;;;;;;;5030191;28;20037;-79
2022/04/05 01:33:12;;;;;;;8.18;5.00;;;;;;;;;;5014846;28;20045;-79
2022/04/05 01:35:39;;;;;;;7.05;4.80;;;;;;;;;;5030258;28;20029;-79
2022/04/05 01:38:04;;;;;;;9.32;4.68;;;;;;;;;;5030611;28;20563;-79
2022/04/05 01:40:30;;;;;;;6.72;4.50;;;;;;;;;;5031025;28;20117;-79
2022/04/05 01:42:55;;;;;;;8.95;4.80;;;;;;;;;;5015968;28;20026;-80
2022/04/05 01:45:20;;;;;;;7.25;4.93;;;;;;;;;;5014824;28;20034;-79
2022/04/05 01:47:45;;;;;;;6.57;4.50;;;;;;;;;;5031028;28;20406;-79
2022/04/05 01:50:11;;;;;;;11.02;5.03;;;;;;;;;;5015858;28;20030;-79
2022/04/05 01:52:36;;;;;;;7.80;5.28;;;;;;;;;;5015056;28;20049;-79
2022/04/05 01:55:01;;;;;;;8.70;5.70;;;;;;;;;;5015282;28;20539;-79
2022/04/05 01:57:27;;;;;;;9.45;5.18;;;;;;;;;;5015562;28;20053;-79
2022/04/05 01:59:52;;;;;;;7.85;4.95;;;;;;;;;;5015274;28;20038;-79
2022/04/05 02:02:18;;;;;;;6.55;4.70;;;;;;;;;;5014648;28;20148;-79
2022/04/05 02:04:44;;;;;;;9.18;5.07;;;;;;;;;;5030006;28;20069;-79
2022/04/05 02:07:10;;;;;;;8.57;4.55;;;;;;;;;;5030219;28;20025;-80
2022/04/05 02:09:35;;;;;;;8.35;4.60;;;;;;;;;;5030442;28;20509;-79
2022/04/05 02:12:02;;;;;;;7.22;4.82;;;;;;;;;;5015083;28;20512;-79
2022/04/05 02:14:57;;;;;;;7.47;4.80;;;;;;;;;;5015128;28;20038;-79
2022/04/05 02:17:31;;;;;;;7.88;4.82;;;;;;;;;;5029909;28;20033;-79
2022/04/05 02:20:00;;;;;;;7.45;4.85;;;;;;;;;;5030158;28;20030;-79
2022/04/05 02:22:27;;;;;;;8.43;5.18;;;;;;;;;;5030148;28;20034;-79
2022/04/05 02:24:57;;;;;;;7.78;5.22;;;;;;;;;;5029749;28;20030;-79
2022/04/05 02:27:23;;;;;;;8.90;5.50;;;;;;;;;;5030120;28;20054;-79
2022/04/05 02:29:49;;;;;;;9.68;5.60;;;;;;;;;;5029589;28;20034;-79
2022/04/05 02:32:20;;;;;;;8.57;4.60;;;;;;;;;;5029864;28;20030;-79
2022/04/05 02:34:45;;;;;;;5.78;4.20;;;;;;;;;;5029488;28;20116;-80
2022/04/05 02:37:11;;;;;;;6.65;4.43;;;;;;;;;;5014599;28;20083;-81
2022/04/05 02:39:37;;;;;;;6.45;4.38;;;;;;;;;;5014275;28;20034;-81
2022/04/05 02:42:03;;;;;;;6.20;4.18;;;;;;;;;;5030085;28;20026;-80
2022/04/05 02:44:33;;;;;;;6.43;4.43;;;;;;;;;;5028295;28;20029;-81
2022/04/05 02:47:02;;;;;;;8.70;5.05;;;;;;;;;;5013368;28;20045;-80
2022/04/05 02:49:30;;;;;;;9.00;5.55;;;;;;;;;;5027868;28;20409;-80
2022/04/05 02:51:56;;;;;;;9.18;5.68;;;;;;;;;;5013471;28;20034;-80
2022/04/05 02:54:29;;;;;;;8.40;5.30;;;;;;;;;;5029160;28;20029;-81
2022/04/05 02:56:57;;;;;;;9.43;5.57;;;;;;;;;;5029436;28;20033;-81
2022/04/05 02:59:23;;;;;;;8.95;5.30;;;;;;;;;;5028182;28;20034;-80
2022/04/05 03:01:50;;;;;;;7.75;5.35;;;;;;;;;;5029336;28;20064;-81
2022/04/05 03:04:18;;;;;;;9.43;5.30;;;;;;;;;;5028926;28;20029;-81
2022/04/05 03:06:43;;;;;;;7.78;5.35;;;;;;;;;;5029573;28;20445;-81
2022/04/05 03:09:11;;;;;;;7.65;5.05;;;;;;;;;;5029785;28;20116;-80
2022/04/05 03:11:37;;;;;;;8.75;5.05;;;;;;;;;;5030609;28;20094;-80
2022/04/05 03:14:03;;;;;;;6.50;4.80;;;;;;;;;;5028739;28;20068;-80
2022/04/05 03:16:29;;;;;;;7.10;4.68;;;;;;;;;;5016593;28;20030;-80
2022/04/05 03:18:57;;;;;;;7.68;5.03;;;;;;;;;;5033143;28;20034;-80
2022/04/05 03:21:23;;;;;;;7.85;4.88;;;;;;;;;;5033727;28;20056;-81
2022/04/05 03:23:48;;;;;;;8.60;5.63;;;;;;;;;;5033688;28;20153;-80
2022/04/05 03:26:14;;;;;;;10.43;5.50;;;;;;;;;;5032538;28;20379;-81
2022/04/05 03:28:40;;;;;;;8.70;5.50;;;;;;;;;;5033504;28;20061;-80
2022/04/05 03:31:06;;;;;;;9.40;5.35;;;;;;;;;;5033303;28;20030;-80
2022/04/05 03:33:31;;;;;;;8.80;5.82;;;;;;;;;;5033133;28;20137;-80
2022/04/05 03:35:58;;;;;;;8.25;5.60;;;;;;;;;;5032471;28;20445;-80
2022/04/05 03:38:27;;;;;;;8.70;5.68;;;;;;;;;;5031635;28;20112;-80
2022/04/05 03:40:53;;;;;;;10.57;5.65;;;;;;;;;;5032581;28;20040;-80
2022/04/05 03:43:19;;;;;;;7.95;5.47;;;;;;;;;;5031775;28;20029;-80
2022/04/05 03:45:49;;;;;;;9.05;5.20;;;;;;;;;;5016703;28;20036;-80
2022/04/05 03:48:15;;;;;;;7.72;4.90;;;;;;;;;;5031364;28;20038;-80
2022/04/05 03:50:41;;;;;;;7.20;5.18;;;;;;;;;;5031727;28;20056;-80
2022/04/05 03:53:07;;;;;;;6.60;4.45;;;;;;;;;;5031453;28;20034;-80
2022/04/05 03:55:33;;;;;;;6.53;4.53;;;;;;;;;;5031364;28;20033;-80
2022/04/05 03:58:01;;;;;;;7.45;4.60;;;;;;;;;;5031697;28;20179;-80
2022/04/05 04:00:28;;;;;;;6.20;3.63;;;;;;;;;;5031722;28;20026;-80
2022/04/05 04:03:06;;;;;;;5.88;3.65;;;;;;;;;;5032317;28;20116;-80
2022/04/05 04:05:31;;;;;;;5.20;3.35;;;;;;;;;;5030834;28;20065;-80
2022/04/05 04:07:57;;;;;;;10.30;4.68;;;;;;;;;;5032432;28;20022;-80
2022/04/05 04:10:23;;;;;;;7.45;4.90;;;;;;;;;;5031364;28;20037;-81
2022/04/05 04:12:50;;;;;;;7.82;5.18;;;;;;;;;;5031226;28;20030;-79
2022/04/05 04:15:19;;;;;;;10.48;5.80;;;;;;;;;;5031795;28;20037;-80
2022/04/05 04:17:45;;;;;;;6.82;4.82;;;;;;;;;;5032019;28;20033;-80
2022/04/05 04:20:11;;;;;;;9.57;4.60;;;;;;;;;;5031185;28;20033;-80
2022/04/05 04:22:38;;;;;;;6.57;4.57;;;;;;;;;;5030940;28;20053;-80
2022/04/05 04:25:04;;;;;;;9.05;4.57;;;;;;;;;;5030220;28;20030;-80
2022/04/05 04:27:30;;;;;;;6.75;4.25;;;;;;;;;;5030436;28;20037;-80
2022/04/05 04:29:55;;;;;;;7.50;4.30;;;;;;;;;;5032186;28;20040;-80
2022/04/05 04:32:21;;;;;;;5.60;3.70;;;;;;;;;;5016764;28;20482;-81
2022/04/05 04:34:46;;;;;;;6.20;3.90;;;;;;;;;;5016278;28;20037;-80
2022/04/05 04:37:12;;;;;;;6.53;4.10;;;;;;;;;;5032147;28;20060;-80
2022/04/05 04:39:37;;;;;;;4.78;3.28;;;;;;;;;;5015304;28;20548;-80
2022/04/05 04:42:02;;;;;;;5.10;3.10;;;;;;;;;;5031062;28;20069;-80
2022/04/05 04:44:28;;;;;;;4.15;2.47;;;;;;;;;;5014826;28;20038;-80
2022/04/05 04:46:53;;;;;;;5.53;2.65;;;;;;;;;;5030455;28;20042;-80
2022/04/05 04:49:18;;;;;;;5.45;2.70;;;;;;;;;;5016329;28;20097;-80
2022/04/05 04:51:43;;;;;;;5.65;2.72;;;;;;;;;;5030525;28;20029;-80
2022/04/05 04:54:08;;;;;;;5.70;2.95;;;;;;;;;;5014757;28;20048;-80
2022/04/05 04:56:34;;;;;;;6.43;2.97;;;;;;;;;;5015160;28;20068;-80
2022/04/05 04:58:59;;;;;;;5.32;3.38;;;;;;;;;;5030527;28;20560;-80
2022/04/05 05:01:24;;;;;;;6.10;3.30;;;;;;;;;;5031885;28;20042;-80
2022/04/05 05:03:51;;;;;;;4.95;3.20;;;;;;;;;;5030034;28;20030;-80
2022/04/05 05:06:16;;;;;;;6.13;4.10;;;;;;;;;;5014842;28;20120;-81
2022/04/05 05:08:41;;;;;;;6.68;3.90;;;;;;;;;;5015174;28;20057;-81
2022/04/05 05:11:07;;;;;;;6.53;4.30;;;;;;;;;;5015121;28;20084;-81
2022/04/05 05:13:32;;;;;;;5.75;3.92;;;;;;;;;;5029758;28;20504;-80
2022/04/05 05:15:57;;;;;;;5.25;3.75;;;;;;;;;;5014770;28;20110;-80
2022/04/05 05:18:23;;;;;;;8.15;4.20;;;;;;;;;;5014732;28;20037;-80
2022/04/05 05:20:48;;;;;;;7.32;4.38;;;;;;;;;;5029891;28;20068;-80
2022/04/05 05:23:13;;;;;;;6.32;4.30;;;;;;;;;;5014615;28;20055;-80
2022/04/05 05:25:38;;;;;;;5.43;3.72;;;;;;;;;;5015260;28;20065;-80
2022/04/05 05:28:04;;;;;;;5.65;3.33;;;;;;;;;;5014141;28;20030;-80
2022/04/05 05:30:29;;;;;;;5.40;3.10;;;;;;;;;;5030129;28;20080;-80
2022/04/05 05:32:54;;;;;;;5.18;2.85;;;;;;;;;;5013705;28;20513;-80
2022/04/05 05:35:19;;;;;;;5.32;3.05;;;;;;;;;;5013414;28;20061;-81
2022/04/05 05:37:45;;;;;;;4.65;3.13;;;;;;;;;;5030608;28;20041;-80
2022/04/05 05:40:10;;;;;;;6.75;3.40;;;;;;;;;;5014970;28;20069;-81
2022/04/05 05:42:35;;;;;;;5.78;3.10;;;;;;;;;;5015426;28;20053;-81
2022/04/05 05:45:01;;;;;;;4.10;2.80;;;;;;;;;;5028619;28;20443;-81
2022/04/05 05:47:26;;;;;;;4.95;2.88;;;;;;;;;;5013024;28;20040;-80
2022/04/05 05:49:51;;;;;;;5.03;3.05;;;;;;;;;;5030585;28;20096;-80
2022/04/05 05:52:16;;;;;;;6.32;3.25;;;;;;;;;;5030040;28;20050;-81
2022/04/05 05:54:41;;;;;;;4.38;2.92;;;;;;;;;;5029244;28;20034;-81
2022/04/05 05:57:07;;;;;;;5.88;2.85;;;;;;;;;;5013334;28;20513;-81
2022/04/05 05:59:32;;;;;;;4.75;3.10;;;;;;;;;;5014199;28;20084;-80
2022/04/05 06:01:57;;;;;;;4.40;3.00;;;;;;;;;;5015435;28;20060;-81
2022/04/05 06:04:22;;;;;;;4.55;3.03;;;;;;;;;;5030351;28;20018;-81
2022/04/05 06:06:48;;;;;;;5.90;3.17;;;;;;;;;;5013775;28;20493;-81
2022/04/05 06:09:13;;;;;;;7.30;3.80;;;;;;;;;;5013774;28;20133;-81
2022/04/05 06:11:38;;;;;;;4.97;3.28;;;;;;;;;;5014728;28;20030;-81
2022/04/05 06:14:03;;;;;;;5.32;3.60;;;;;;;;;;5014578;28;20033;-81
2022/04/05 06:16:29;;;;;;;5.78;3.67;;;;;;;;;;5014234;28;20053;-81
2022/04/05 06:18:54;;;;;;;6.25;3.80;;;;;;;;;;5014411;28;20042;-82
2022/04/05 06:21:19;;;;;;;5.57;3.95;;;;;;;;;;5013323;28;20044;-82
2022/04/05 06:23:44;;;;;;;6.30;4.10;;;;;;;;;;5014335;28;20045;-80
2022/04/05 06:26:11;;;;;;;5.63;4.03;;;;;;;;;;5014510;28;20402;-80
2022/04/05 06:28:36;;;;;;;6.85;4.30;;;;;;;;;;5014003;28;20041;-79
2022/04/05 06:31:01;;;;;;;6.90;4.35;;;;;;;;;;5013551;28;20530;-80
2022/04/05 06:33:27;;;;;;;7.75;5.07;;;;;;;;;;5014425;28;20042;-81
2022/04/05 06:35:52;;;;;;;6.68;4.50;;;;;;;;;;5029254;28;20032;-81
2022/04/05 06:38:17;;;;;;;8.85;4.68;;;;;;;;;;5013285;28;20528;-80
2022/04/05 06:40:43;;;;;;;7.32;4.63;;;;;;;;;;5029173;28;20045;-81
2022/04/05 06:43:08;;;;;;;8.13;5.15;;;;;;;;;;5015663;28;20437;-80
2022/04/05 06:45:34;;;;;;;7.63;4.70;;;;;;;;;;5027877;28;20034;-82
2022/04/05 06:47:59;;;;;;;7.22;5.18;;;;;;;;;;5014977;28;20561;-81
2022/04/05 06:50:25;;;;;;;6.88;4.55;;;;;;;;;;5016093;28;20124;-81
2022/04/05 06:52:50;;;;;;;7.63;4.47;;;;;;;;;;5022191;28;20060;-82
2022/04/05 06:55:15;;;;;;;7.68;5.30;;;;;;;;;;5018520;28;20541;-81
2022/04/05 06:57:40;;;;;;;9.18;5.22;;;;;;;;;;5018645;28;20060;-81
2022/04/05 07:00:06;;;;;;;7.10;4.50;;;;;;;;;;5018385;28;20033;-81
2022/04/05 07:02:31;;;;;;;7.60;4.82;;;;;;;;;;5016673;28;20041;-80
2022/04/05 07:04:57;;;;;;;7.32;4.35;;;;;;;;;;5017173;28;20037;-83
2022/04/05 07:07:22;;;;;;;8.65;4.80;;;;;;;;;;5017399;28;20067;-81
2022/04/05 07:09:47;;;;;;;7.13;4.30;;;;;;;;;;5018360;28;20037;-81
2022/04/05 07:12:12;;;;;;;5.85;4.13;;;;;;;;;;5017913;28;20118;-82
2022/04/05 07:14:39;;;;;;;7.95;4.20;;;;;;;;;;5018264;28;20033;-81
2022/04/05 07:17:04;;;;;;;8.70;4.47;;;;;;;;;;5018214;28;20061;-81
2022/04/05 07:19:29;;;;;;;5.97;4.00;;;;;;;;;;5001742;28;20418;-81
2022/04/05 07:21:55;;;;;;;10.07;4.40;;;;;;;;;;5020112;28;20054;-81
2022/04/05 07:24:21;;;;;;;8.77;4.28;;;;;;;;;;5022124;28;20040;-81
2022/04/05 07:26:46;;;;;;;7.05;4.63;;;;;;;;;;5021044;28;20038;-81
2022/04/05 07:29:11;;;;;;;6.38;4.43;;;;;;;;;;5021969;28;20045;-82
2022/04/05 07:31:37;;;;;;;7.25;4.80;;;;;;;;;;5025592;28;20029;-81
2022/04/05 07:34:03;;;;;;;6.38;4.38;;;;;;;;;;5025516;28;20030;-81
2022/04/05 07:36:29;;;;;;;7.30;4.50;;;;;;;;;;5008288;28;20057;-81
2022/04/05 07:38:54;;;;;;;9.45;4.40;;;;;;;;;;5020076;28;20434;-81
2022/04/05 07:41:19;;;;;;;6.07;4.05;;;;;;;;;;5016460;28;20049;-81
2022/04/05 07:43:45;;;;;;;5.70;4.05;;;;;;;;;;5017986;28;20049;-81
2022/04/05 07:46:10;;;;;;;6.32;4.45;;;;;;;;;;5017764;28;20431;-82
2022/04/05 07:48:35;;;;;;;6.72;4.10;;;;;;;;;;5017805;28;20041;-81
2022/04/05 07:51:01;;;;;;;5.07;3.47;;;;;;;;;;5016553;28;20405;-81
2022/04/05 07:53:26;;;;;;;5.70;3.63;;;;;;;;;;5017123;28;20123;-81
2022/04/05 07:55:54;;;;;;;5.50;3.67;;;;;;;;;;5015854;28;20026;-81
2022/04/05 07:58:19;;;;;;;6.03;3.38;;;;;;;;;;5016257;28;20041;-81
2022/04/05 08:00:44;;;;;;;5.25;3.78;;;;;;;;;;5016752;28;20103;-80
2022/04/05 08:03:10;;;;;;;5.50;3.60;;;;;;;;;;5016187;28;20086;-81
2022/04/05 08:05:35;;;;;;;7.03;4.40;;;;;;;;;;5015737;28;20038;-81
2022/04/05 08:08:00;;;;;;;5.40;3.60;;;;;;;;;;5017480;28;20371;-81
2022/04/05 08:10:25;;;;;;;4.80;3.33;;;;;;;;;;5017680;28;20060;-81
2022/04/05 08:12:51;;;;;;;4.80;3.30;;;;;;;;;;5017196;28;20034;-81
2022/04/05 08:15:16;;;;;;;6.47;3.40;;;;;;;;;;5019512;22;1178806;-83
2022/04/05 08:17:41;;;;;;;6.07;3.58;;;;;;;;;;5056547;28;20033;-83
2022/04/05 08:20:07;;;;;;;4.60;3.25;;;;;;;;;;5057945;28;20029;-83
2022/04/05 08:22:32;;;;;;;5.32;3.28;;;;;;;;;;5057070;28;20041;-82
2022/04/05 08:24:57;;;;;;;4.68;2.90;;;;;;;;;;5056166;28;20120;-82
2022/04/05 08:27:22;;;;;;;5.85;2.92;;;;;;;;;;5057231;28;20056;-83
2022/04/05 08:29:47;;;;;;;4.70;2.90;;;;;;;;;;5057800;28;20028;-82
2022/04/05 08:32:13;;;;;;;4.40;3.30;;;;;;;;;;5057554;28;20079;-82
2022/04/05 08:34:41;;;;;;;4.90;3.00;;;;;;;;;;5057711;28;20086;-83
2022/04/05 08:37:08;;;;;;;4.13;2.83;;;;;;;;;;5056083;28;20040;-83
2022/04/05 08:39:33;;;;;;;5.50;3.22;;;;;;;;;;5056861;28;20124;-83
2022/04/05 08:41:58;;;;;;;5.05;3.10;;;;;;;;;;5039900;28;20095;-84
2022/04/05 08:44:23;;;;;;;4.53;3.05;;;;;;;;;;5056200;28;20037;-83
2022/04/05 08:46:49;;;;;;;4.63;2.83;;;;;;;;;;5056674;28;20111;-81
2022/04/05 08:49:14;;;;;;;5.82;2.85;;;;;;;;;;5058042;28;20063;-84
2022/04/05 08:51:42;;;;;;;4.15;2.92;;;;;;;;;;5055965;28;20029;-82
2022/04/05 08:54:07;;;;;;;4.15;2.78;;;;;;;;;;5057496;28;20041;-83
2022/04/05 08:56:33;;;;;;;5.80;3.10;;;;;;;;;;5057294;28;20039;-83
2022/04/05 08:58:59;;;;;;;5.10;3.40;;;;;;;;;;5055660;28;20493;-81
2022/04/05 09:01:29;;;;;;;4.15;2.88;;;;;;;;;;5056066;28;20048;-84
2022/04/05 09:03:54;;;;;;;3.70;2.65;;;;;;;;;;5055597;28;20032;-84
2022/04/05 09:06:19;;;;;;;4.00;2.80;;;;;;;;;;5055398;28;20029;-84
2022/04/05 09:08:44;;;;;;;5.28;2.70;;;;;;;;;;5057239;28;20029;-83
2022/04/05 09:11:10;;;;;;;5.13;2.70;;;;;;;;;;5055869;28;20036;-85
2022/04/05 09:13:35;;;;;;;4.60;2.70;;;;;;;;;;5056513;28;20036;-85
2022/04/05 09:16:04;;;;;;;3.85;2.80;;;;;;;;;;5055466;28;20116;-85
2022/04/05 09:18:30;;;;;;;4.78;3.30;;;;;;;;;;5056985;28;20037;-86
2022/04/05 09:20:55;;;;;;;5.95;3.00;;;;;;;;;;5052853;28;20512;-85
2022/04/05 09:23:20;;;;;;;6.68;3.67;;;;;;;;;;5056288;28;20041;-86
2022/04/05 09:25:45;;;;;;;4.22;2.80;;;;;;;;;;5056191;28;20036;-86
2022/04/05 09:28:11;;;;;;;4.43;2.30;;;;;;;;;;5056365;28;20071;-84
2022/04/05 09:30:37;;;;;;;3.90;2.50;;;;;;;;;;5051063;28;20048;-85
2022/04/05 09:33:04;;;;;;;4.53;2.88;;;;;;;;;;5055505;28;20130;-83
2022/04/05 09:35:29;;;;;;;7.53;3.17;;;;;;;;;;5052916;28;20259;-83
2022/04/05 09:37:54;;;;;;;4.85;2.85;;;;;;;;;;5068206;28;20035;-84
2022/04/05 09:40:19;;;;;;;4.78;2.75;;;;;;;;;;5054959;28;20037;-85
2022/04/05 09:42:45;;;;;;;5.60;2.50;;;;;;;;;;5054635;28;20055;-83
2022/04/05 09:45:10;;;;;;;6.20;2.92;;;;;;;;;;5054174;28;20028;-83
2022/04/05 09:47:35;;;;;;;4.55;2.70;;;;;;;;;;5053849;28;20033;-82
2022/04/05 09:50:02;;;;;;;5.43;2.97;;;;;;;;;;5036907;28;20047;-82
2022/04/05 09:52:28;;;;;;;3.35;1.73;;;;;;;;;;5056143;28;20039;-83
2022/04/05 09:54:53;;;;;;;4.75;2.72;;;;;;;;;;5053730;28;20472;-84
2022/04/05 09:57:18;;;;;;;4.63;2.70;;;;;;;;;;5055393;28;20032;-84
2022/04/05 09:59:43;;;;;;;5.45;2.88;;;;;;;;;;5056291;28;20037;-83
2022/04/05 10:02:09;;;;;;;3.83;2.75;;;;;;;;;;5055165;28;20547;-83
2022/04/05 10:04:35;;;;;;;4.88;2.80;;;;;;;;;;5054838;28;20025;-83
2022/04/05 10:07:02;;;;;;;4.82;3.10;;;;;;;;;;5057808;28;20021;-84
2022/04/05 10:09:28;;;;;;;3.72;2.50;;;;;;;;;;5056053;28;20033;-83
2022/04/05 10:11:55;;;;;;;5.07;3.10;;;;;;;;;;5056110;28;20381;-83
2022/04/05 10:14:20;;;;;;;4.25;2.72;;;;;;;;;;5055631;28;20028;-82
2022/04/05 10:16:46;;;;;;;3.60;2.38;;;;;;;;;;5055874;28;20044;-82
2022/04/05 10:19:11;;;;;;;3.00;2.20;;;;;;;;;;5055742;28;20033;-83
2022/04/05 10:21:36;;;;;;;3.95;2.60;;;;;;;;;;5053971;28;20032;-83
2022/04/05 10:24:02;;;;;;;2.88;2.40;;;;;;;;;;5054185;28;20036;-82
2022/04/05 10:26:27;;;;;;;5.70;2.70;;;;;;;;;;5042215;28;20473;-83
2022/04/05 10:28:53;;;;;;;2.92;2.20;;;;;;;;;;5035144;28;20409;-83
2022/04/05 10:31:18;;;;;;;2.63;2.03;;;;;;;;;;5048948;28;20029;-83
2022/04/05 10:33:45;;;;;;;3.30;2.30;;;;;;;;;;5054570;28;20032;-82
2022/04/05 10:36:10;;;;;;;5.10;3.08;;;;;;;;;;5053731;28;20033;-83
2022/04/05 10:38:35;;;;;;;2.83;2.20;;;;;;;;;;5053613;28;20033;-84
2022/04/05 10:41:01;;;;;;;3.17;2.00;;;;;;;;;;5052889;28;20075;-83
2022/04/05 10:43:26;;;;;;;4.07;2.10;;;;;;;;;;5052326;28;20079;-84
2022/04/05 10:45:51;;;;;;;3.13;2.40;;;;;;;;;;5051140;28;20036;-82
2022/04/05 10:48:18;;;;;;;5.55;2.38;;;;;;;;;;5051319;28;20033;-84
2022/04/05 10:50:43;;;;;;;4.20;1.70;;;;;;;;;;5034355;28;20093;-85
2022/04/05 10:53:08;;;;;;;2.92;1.52;;;;;;;;;;5053002;28;20025;-84
2022/04/05 10:55:33;;;;;;;4.28;2.25;;;;;;;;;;5048188;28;20520;-83
2022/04/05 10:57:59;;;;;;;2.67;1.80;;;;;;;;;;5033343;28;20041;-85
2022/04/05 11:00:25;;;;;;;2.42;1.60;;;;;;;;;;5032177;28;20136;-82
2022/04/05 11:02:51;;;;;;;3.10;2.10;;;;;;;;;;5034584;28;20605;-83
2022/04/05 11:05:19;;;;;;;3.72;1.80;;;;;;;;;;5033321;28;20053;-82
2022/04/05 11:07:44;;;;;;;4.07;2.22;;;;;;;;;;5033939;28;20030;-82
2022/04/05 11:10:10;;;;;;;3.80;1.90;;;;;;;;;;5033018;28;20033;-83
2022/04/05 11:12:35;;;;;;;4.70;1.70;;;;;;;;;;5032717;28;20030;-82
2022/04/05 11:15:04;;;;;;;3.28;2.03;;;;;;;;;;5033857;28;20029;-83
2022/04/05 11:17:30;;;;;;;2.53;1.88;;;;;;;;;;5033641;28;20021;-81
2022/04/05 11:19:55;;;;;;;2.22;1.50;;;;;;;;;;5032951;28;20425;-82
2022/04/05 11:22:20;;;;;;;3.22;1.80;;;;;;;;;;5032735;28;20172;-84
2022/04/05 11:24:46;;;;;;;4.43;1.70;;;;;;;;;;5033363;28;20033;-85
2022/04/05 11:27:11;;;;;;;2.50;1.70;;;;;;;;;;5032954;28;20033;-82
2022/04/05 11:29:36;;;;;;;4.60;1.60;;;;;;;;;;5037907;28;20029;-83
2022/04/05 11:32:01;;;;;;;2.65;1.80;;;;;;;;;;5052799;28;20120;-83
2022/04/05 11:34:27;;;;;;;3.50;1.60;;;;;;;;;;5054154;28;20528;-84
2022/04/05 11:36:52;;;;;;;2.10;1.17;;;;;;;;;;5053989;28;20110;-83
2022/04/05 11:39:17;;;;;;;2.90;1.40;;;;;;;;;;5057561;28;20075;-83
2022/04/05 11:41:42;;;;;;;2.50;1.50;;;;;;;;;;5039567;28;20033;-83
2022/04/05 11:44:08;;;;;;;2.42;1.70;;;;;;;;;;5056895;28;20635;-83
2022/04/05 11:46:33;;;;;;;2.45;1.40;;;;;;;;;;5056061;28;20489;-84
2022/04/05 11:48:58;;;;;;;3.65;1.60;;;;;;;;;;5057350;28;20114;-82
2022/04/05 11:51:23;;;;;;;2.78;1.90;;;;;;;;;;5056727;28;20083;-84
2022/04/05 11:53:48;;;;;;;2.60;1.73;;;;;;;;;;5055430;28;20048;-85
2022/04/05 11:56:14;;;;;;;1.80;1.10;;;;;;;;;;5055351;28;20029;-83
2022/04/05 11:58:39;;;;;;;2.38;1.00;;;;;;;;;;5055475;28;20033;-82
2022/04/05 12:01:04;;;;;;;1.40;1.02;;;;;;;;;;5055562;28;20074;-82
2022/04/05 12:03:30;;;;;;;1.75;1.30;;;;;;;;;;5057951;28;20040;-82
2022/04/05 12:05:55;;;;;;;1.40;1.27;;;;;;;;;;5070302;28;20051;-84
2022/04/05 12:08:20;;;;;;;3.58;1.80;;;;;;;;;;5062160;28;20117;-85
2022/04/05 12:10:45;;;;;;;1.48;1.20;;;;;;;;;;5060658;28;20032;-86
2022/04/05 12:13:11;;;;;;;1.27;1.10;;;;;;;;;;5060360;28;20507;-85
2022/04/05 12:15:36;;;;;;;2.22;1.27;;;;;;;;;;5057740;28;20041;-85
2022/04/05 12:18:01;;;;;;;2.05;1.38;;;;;;;;;;5057855;28;20547;-85
2022/04/05 12:20:26;;;;;;;1.98;1.00;;;;;;;;;;5058264;28;20486;-84
2022/04/05 12:22:52;;;;;;;3.78;1.50;;;;;;;;;;5059549;28;20036;-83
2022/04/05 12:25:18;;;;;;;2.35;1.23;;;;;;;;;;5058055;28;20058;-85
2022/04/05 12:27:43;;;;;;;1.52;1.13;;;;;;;;;;5059112;28;20056;-85
2022/04/05 12:30:09;;;;;;;1.92;1.27;;;;;;;;;;5060082;28;20062;-83
2022/04/05 12:32:35;;;;;;;2.67;1.52;;;;;;;;;;5059137;28;20496;-85
2022/04/05 12:35:00;;;;;;;2.97;1.60;;;;;;;;;;5057138;28;20032;-83
2022/04/05 12:37:25;;;;;;;3.58;1.70;;;;;;;;;;5058953;28;20118;-85
2022/04/05 12:39:50;;;;;;;3.65;1.88;;;;;;;;;;5058386;28;20025;-85
2022/04/05 12:42:16;;;;;;;3.28;1.70;;;;;;;;;;5057325;28;20497;-83
2022/04/05 12:44:41;;;;;;;2.08;1.70;;;;;;;;;;5058444;28;20034;-86
2022/04/05 12:47:06;;;;;;;3.58;1.67;;;;;;;;;;5058807;28;20033;-84
2022/04/05 12:49:33;;;;;;;2.40;1.70;;;;;;;;;;5057006;28;20529;-87
2022/04/05 12:51:58;;;;;;;4.18;2.08;;;;;;;;;;5056823;28;20064;-85
2022/04/05 12:54:23;;;;;;;4.88;1.70;;;;;;;;;;5057867;28;20032;-86
2022/04/05 12:56:49;;;;;;;3.03;1.90;;;;;;;;;;5057853;28;20036;-84
2022/04/05 12:59:14;;;;;;;2.33;1.80;;;;;;;;;;5056821;28;20032;-84
2022/04/05 13:01:39;;;;;;;4.13;2.00;;;;;;;;;;5055689;28;20048;-83
2022/04/05 13:04:04;;;;;;;2.20;1.65;;;;;;;;;;5056197;28;20032;-84
2022/04/05 13:06:30;;;;;;;1.67;1.30;;;;;;;;;;5038405;28;20037;-83
2022/04/05 13:08:55;;;;;;;1.92;1.38;;;;;;;;;;5038799;28;20040;-83
2022/04/05 13:11:25;;;;;;;2.03;1.00;;;;;;;;;;5058403;28;20045;-83
2022/04/05 13:13:50;;;;;;;2.05;1.20;;;;;;;;;;5056519;28;20041;-85
2022/04/05 13:16:15;;;;;;;1.90;1.30;;;;;;;;;;5058078;28;20171;-84
2022/04/05 13:18:41;;;;;;;1.63;1.20;;;;;;;;;;5055995;28;20044;-84
2022/04/05 13:21:06;;;;;;;1.83;1.20;;;;;;;;;;5057273;28;20047;-82
2022/04/05 13:23:31;;;;;;;1.38;1.20;;;;;;;;;;5055563;28;20029;-83
2022/04/05 13:25:57;;;;;;;1.88;1.33;;;;;;;;;;5056884;28;20036;-84
2022/04/05 13:28:22;;;;;;;2.53;1.40;;;;;;;;;;5055578;28;20029;-84
2022/04/05 13:30:47;;;;;;;4.10;1.30;;;;;;;;;;5044039;28;20485;-82
2022/04/05 13:33:13;;;;;;;1.90;1.13;;;;;;;;;;5035958;28;20044;-81
2022/04/05 13:35:38;;;;;;;1.60;0.88;;;;;;;;;;5035932;28;20041;-83
2022/04/05 13:38:03;;;;;;;2.00;1.20;;;;;;;;;;5036837;28;20516;-82
2022/04/05 13:40:28;;;;;;;0.80;0.80;;;;;;;;;;5037187;28;20049;-83
2022/04/05 13:42:54;;;;;;;1.92;0.90;;;;;;;;;;5035199;28;20030;-84
2022/04/05 13:45:19;;;;;;;1.10;0.82;;;;;;;;;;5035316;28;20037;-84
2022/04/05 13:47:45;;;;;;;1.30;1.00;;;;;;;;;;5035819;28;20045;-84
2022/04/05 13:50:10;;;;;;;2.00;1.15;;;;;;;;;;5036446;28;20040;-83
2022/04/05 13:52:36;;;;;;;1.83;0.90;;;;;;;;;;5035190;28;20489;-83
2022/04/05 13:55:04;;;;;;;2.05;1.00;;;;;;;;;;5036599;28;20436;-80
2022/04/05 13:57:29;;;;;;;1.42;1.02;;;;;;;;;;5034689;28;20379;-83
2022/04/05 13:59:54;;;;;;;1.77;1.08;;;;;;;;;;5035651;28;20045;-85
2022/04/05 14:02:19;;;;;;;1.40;1.10;;;;;;;;;;5036112;28;20182;-83
2022/04/05 14:04:45;;;;;;;1.35;1.00;;;;;;;;;;5034067;28;20037;-84
2022/04/05 14:07:11;;;;;;;2.20;1.10;;;;;;;;;;5034974;28;20029;-82
2022/04/05 14:09:36;;;;;;;1.73;1.20;;;;;;;;;;5036830;28;20041;-82
2022/04/05 14:12:02;;;;;;;1.73;1.10;;;;;;;;;;5034172;28;20033;-82
2022/04/05 14:14:27;;;;;;;2.40;1.10;;;;;;;;;;5035087;28;20065;-84
2022/04/05 14:16:53;;;;;;;2.20;1.33;;;;;;;;;;5031958;28;20374;-81
2022/04/05 14:19:18;;;;;;;2.15;1.30;;;;;;;;;;5031397;28;20037;-83
2022/04/05 14:21:43;;;;;;;2.97;1.30;;;;;;;;;;5033116;28;20060;-85
2022/04/05 14:24:08;;;;;;;1.67;1.02;;;;;;;;;;5059809;22;20408;-81
2022/04/05 14:26:34;;;;;;;1.75;1.00;;;;;;;;;;5052674;28;20056;-81
2022/04/05 14:28:59;;;;;;;2.50;1.15;;;;;;;;;;5053966;28;20473;-83
2022/04/05 14:31:25;;;;;;;3.42;1.30;;;;;;;;;;5053483;28;20044;-82
2022/04/05 14:33:50;;;;;;;1.90;1.13;;;;;;;;;;5052790;28;20029;-80